sensor_id;sensor_type;location;lat;lon;timestamp;P1;durP1;ratioP1;P2;durP2;ratioP2
58360;SDS011;44164;44.954;10.068;2023-04-07T00:02:10;5.28;;;3.75;;
58360;SDS011;44164;44.954;10.068;2023-04-07T00:04:37;8.10;;;3.45;;
58360;SDS011;44164;44.954;10.068;2023-04-07T00:07:03;6.38;;;3.33;;
58360;SDS011;44164;44.954;10.068;2023-04-07T00:09:29;8.50;;;3.72;;
58360;SDS011;44164;44.954;10.068;2023-04-07T00:11:55;7.22;;;3.70;;
58360;SDS011;44164;44.954;10.068;2023-04-07T00:14:21;4.85;;;3.60;;
58360;SDS011;44164;44.954;10.068;2023-04-07T00:16:47;5.35;;;3.13;;
58360;SDS011;44164;44.954;10.068;2023-04-07T00:19:13;5.88;;;3.20;;
58360;SDS011;44164;44.954;10.068;2023-04-07T00:21:39;6.18;;;3.10;;
58360;SDS011;44164;44.954;10.068;2023-04-07T00:24:06;5.90;;;3.00;;
58360;SDS011;44164;44.954;10.068;2023-04-07T00:26:32;6.40;;;3.47;;
58360;SDS011;44164;44.954;10.068;2023-04-07T00:28:58;5.82;;;3.35;;
58360;SDS011;44164;44.954;10.068;2023-04-07T00:31:24;5.15;;;3.03;;
58360;SDS011;44164;44.954;10.068;2023-04-07T00:33:50;8.32;;;3.15;;
58360;SDS011;44164;44.954;10.068;2023-04-07T00:36:16;7.53;;;3.45;;
58360;SDS011;44164;44.954;10.068;2023-04-07T00:38:42;4.75;;;3.10;;
58360;SDS011;44164;44.954;10.068;2023-04-07T00:41:09;5.20;;;3.53;;
58360;SDS011;44164;44.954;10.068;2023-04-07T00:43:35;6.53;;;3.50;;
58360;SDS011;44164;44.954;10.068;2023-04-07T00:46:01;5.50;;;3.53;;
58360;SDS011;44164;44.954;10.068;2023-04-07T00:48:27;7.35;;;3.92;;
58360;SDS011;44164;44.954;10.068;2023-04-07T00:50:53;5.80;;;3.50;;
58360;SDS011;44164;44.954;10.068;2023-04-07T00:53:19;5.80;;;3.53;;
58360;SDS011;44164;44.954;10.068;2023-04-07T00:55:46;6.47;;;3.72;;
58360;SDS011;44164;44.954;10.068;2023-04-07T00:58:12;6.38;;;3.38;;
58360;SDS011;44164;44.954;10.068;2023-04-07T01:00:44;4.32;;;3.25;;
58360;SDS011;44164;44.954;10.068;2023-04-07T01:03:18;5.13;;;3.15;;
58360;SDS011;44164;44.954;10.068;2023-04-07T01:11:31;4.82;;;2.50;;
58360;SDS011;44164;44.954;10.068;2023-04-07T01:14:04;4.70;;;2.75;;
58360;SDS011;44164;44.954;10.068;2023-04-07T01:16:37;3.95;;;2.60;;
58360;SDS011;44164;44.954;10.068;2023-04-07T01:19:31;4.20;;;3.08;;
58360;SDS011;44164;44.954;10.068;2023-04-07T01:21:59;3.78;;;2.60;;
58360;SDS011;44164;44.954;10.068;2023-04-07T01:27:41;7.40;;;3.70;;
58360;SDS011;44164;44.954;10.068;2023-04-07T01:30:24;4.90;;;3.25;;
58360;SDS011;44164;44.954;10.068;2023-04-07T01:32:53;4.80;;;3.00;;
58360;SDS011;44164;44.954;10.068;2023-04-07T01:35:21;4.95;;;2.92;;
58360;SDS011;44164;44.954;10.068;2023-04-07T01:37:48;4.65;;;2.95;;
58360;SDS011;44164;44.954;10.068;2023-04-07T01:40:15;6.55;;;3.50;;
58360;SDS011;44164;44.954;10.068;2023-04-07T01:42:42;5.78;;;2.92;;
58360;SDS011;44164;44.954;10.068;2023-04-07T01:45:09;4.33;;;2.90;;
58360;SDS011;44164;44.954;10.068;2023-04-07T01:47:36;3.72;;;2.83;;
58360;SDS011;44164;44.954;10.068;2023-04-07T01:50:02;5.07;;;3.35;;
58360;SDS011;44164;44.954;10.068;2023-04-07T01:52:30;3.78;;;2.72;;
58360;SDS011;44164;44.954;10.068;2023-04-07T01:54:58;4.57;;;3.05;;
58360;SDS011;44164;44.954;10.068;2023-04-07T01:57:25;5.13;;;2.75;;
58360;SDS011;44164;44.954;10.068;2023-04-07T01:59:57;4.93;;;3.35;;
58360;SDS011;44164;44.954;10.068;2023-04-07T02:02:26;5.07;;;3.10;;
58360;SDS011;44164;44.954;10.068;2023-04-07T02:04:57;3.35;;;2.47;;
58360;SDS011;44164;44.954;10.068;2023-04-07T02:07:35;4.10;;;2.50;;
58360;SDS011;44164;44.954;10.068;2023-04-07T02:10:07;5.57;;;3.25;;
58360;SDS011;44164;44.954;10.068;2023-04-07T02:12:36;3.95;;;2.80;;
58360;SDS011;44164;44.954;10.068;2023-04-07T02:15:11;3.58;;;2.72;;
58360;SDS011;44164;44.954;10.068;2023-04-07T02:17:39;4.88;;;3.00;;
58360;SDS011;44164;44.954;10.068;2023-04-07T02:20:07;5.07;;;3.05;;
58360;SDS011;44164;44.954;10.068;2023-04-07T02:22:37;5.07;;;2.88;;
58360;SDS011;44164;44.954;10.068;2023-04-07T02:25:26;4.55;;;2.55;;
58360;SDS011;44164;44.954;10.068;2023-04-07T02:27:54;4.03;;;2.90;;
58360;SDS011;44164;44.954;10.068;2023-04-07T02:30:21;5.18;;;2.45;;
58360;SDS011;44164;44.954;10.068;2023-04-07T02:32:47;4.50;;;2.80;;
58360;SDS011;44164;44.954;10.068;2023-04-07T02:35:14;5.80;;;2.88;;
58360;SDS011;44164;44.954;10.068;2023-04-07T02:37:41;5.60;;;2.60;;
58360;SDS011;44164;44.954;10.068;2023-04-07T02:40:08;4.50;;;2.65;;
58360;SDS011;44164;44.954;10.068;2023-04-07T02:42:35;4.93;;;3.15;;
58360;SDS011;44164;44.954;10.068;2023-04-07T02:45:02;4.40;;;3.28;;
58360;SDS011;44164;44.954;10.068;2023-04-07T02:47:29;5.18;;;2.75;;
58360;SDS011;44164;44.954;10.068;2023-04-07T02:49:56;5.30;;;2.83;;
58360;SDS011;44164;44.954;10.068;2023-04-07T02:52:22;5.07;;;3.13;;
58360;SDS011;44164;44.954;10.068;2023-04-07T02:54:48;5.70;;;3.30;;
58360;SDS011;44164;44.954;10.068;2023-04-07T02:57:18;3.75;;;2.67;;
58360;SDS011;44164;44.954;10.068;2023-04-07T02:59:44;5.03;;;2.88;;
58360;SDS011;44164;44.954;10.068;2023-04-07T03:02:11;4.70;;;2.50;;
58360;SDS011;44164;44.954;10.068;2023-04-07T03:04:38;4.82;;;2.88;;
58360;SDS011;44164;44.954;10.068;2023-04-07T03:07:04;5.68;;;2.58;;
58360;SDS011;44164;44.954;10.068;2023-04-07T03:09:31;5.82;;;2.90;;
58360;SDS011;44164;44.954;10.068;2023-04-07T03:11:57;6.85;;;3.17;;
58360;SDS011;44164;44.954;10.068;2023-04-07T03:14:27;5.50;;;2.85;;
58360;SDS011;44164;44.954;10.068;2023-04-07T03:16:53;6.75;;;3.90;;
58360;SDS011;44164;44.954;10.068;2023-04-07T03:19:21;5.18;;;3.00;;
58360;SDS011;44164;44.954;10.068;2023-04-07T03:21:49;4.72;;;3.08;;
58360;SDS011;44164;44.954;10.068;2023-04-07T03:24:16;4.28;;;2.60;;
58360;SDS011;44164;44.954;10.068;2023-04-07T03:26:44;5.28;;;2.80;;
58360;SDS011;44164;44.954;10.068;2023-04-07T03:29:31;5.65;;;3.22;;
58360;SDS011;44164;44.954;10.068;2023-04-07T03:31:57;4.05;;;2.53;;
58360;SDS011;44164;44.954;10.068;2023-04-07T03:34:24;5.25;;;3.05;;
58360;SDS011;44164;44.954;10.068;2023-04-07T03:36:50;5.15;;;2.88;;
58360;SDS011;44164;44.954;10.068;2023-04-07T03:39:16;3.53;;;2.55;;
58360;SDS011;44164;44.954;10.068;2023-04-07T03:41:43;4.38;;;2.40;;
58360;SDS011;44164;44.954;10.068;2023-04-07T03:44:10;5.38;;;2.67;;
58360;SDS011;44164;44.954;10.068;2023-04-07T03:46:37;6.20;;;3.13;;
58360;SDS011;44164;44.954;10.068;2023-04-07T03:49:03;4.15;;;2.50;;
58360;SDS011;44164;44.954;10.068;2023-04-07T03:51:31;5.28;;;2.63;;
58360;SDS011;44164;44.954;10.068;2023-04-07T03:53:59;4.43;;;2.63;;
58360;SDS011;44164;44.954;10.068;2023-04-07T03:56:38;4.45;;;2.40;;
58360;SDS011;44164;44.954;10.068;2023-04-07T03:59:05;4.35;;;3.00;;
58360;SDS011;44164;44.954;10.068;2023-04-07T04:01:36;4.97;;;2.75;;
58360;SDS011;44164;44.954;10.068;2023-04-07T04:04:10;5.47;;;2.60;;
58360;SDS011;44164;44.954;10.068;2023-04-07T04:06:36;4.97;;;2.97;;
58360;SDS011;44164;44.954;10.068;2023-04-07T04:09:15;5.70;;;2.90;;
58360;SDS011;44164;44.954;10.068;2023-04-07T04:11:45;4.10;;;2.72;;
58360;SDS011;44164;44.954;10.068;2023-04-07T04:14:13;4.00;;;2.40;;
58360;SDS011;44164;44.954;10.068;2023-04-07T04:16:41;4.35;;;2.88;;
58360;SDS011;44164;44.954;10.068;2023-04-07T04:19:20;6.63;;;2.85;;
58360;SDS011;44164;44.954;10.068;2023-04-07T04:21:46;6.43;;;3.13;;
58360;SDS011;44164;44.954;10.068;2023-04-07T04:24:14;4.28;;;2.97;;
58360;SDS011;44164;44.954;10.068;2023-04-07T04:26:42;5.03;;;2.42;;
58360;SDS011;44164;44.954;10.068;2023-04-07T04:29:11;3.75;;;2.47;;
58360;SDS011;44164;44.954;10.068;2023-04-07T04:31:39;6.90;;;3.17;;
58360;SDS011;44164;44.954;10.068;2023-04-07T04:34:06;4.93;;;3.03;;
58360;SDS011;44164;44.954;10.068;2023-04-07T04:36:32;4.25;;;2.63;;
58360;SDS011;44164;44.954;10.068;2023-04-07T04:39:03;6.07;;;3.20;;
58360;SDS011;44164;44.954;10.068;2023-04-07T04:41:31;10.02;;;3.60;;
58360;SDS011;44164;44.954;10.068;2023-04-07T04:43:58;6.20;;;2.53;;
58360;SDS011;44164;44.954;10.068;2023-04-07T04:46:25;5.30;;;2.58;;
58360;SDS011;44164;44.954;10.068;2023-04-07T04:48:52;6.18;;;3.65;;
58360;SDS011;44164;44.954;10.068;2023-04-07T04:51:20;4.82;;;2.85;;
58360;SDS011;44164;44.954;10.068;2023-04-07T04:53:51;7.18;;;2.92;;
58360;SDS011;44164;44.954;10.068;2023-04-07T04:58:48;4.70;;;2.92;;
58360;SDS011;44164;44.954;10.068;2023-04-07T05:01:22;5.15;;;3.15;;
58360;SDS011;44164;44.954;10.068;2023-04-07T05:03:54;7.68;;;3.83;;
58360;SDS011;44164;44.954;10.068;2023-04-07T05:06:23;6.30;;;3.67;;
58360;SDS011;44164;44.954;10.068;2023-04-07T05:08:51;4.88;;;3.40;;
58360;SDS011;44164;44.954;10.068;2023-04-07T05:11:21;5.28;;;3.25;;
58360;SDS011;44164;44.954;10.068;2023-04-07T05:13:50;6.07;;;3.03;;
58360;SDS011;44164;44.954;10.068;2023-04-07T05:16:17;4.85;;;2.80;;
58360;SDS011;44164;44.954;10.068;2023-04-07T05:18:43;7.35;;;3.97;;
58360;SDS011;44164;44.954;10.068;2023-04-07T05:21:10;7.47;;;3.83;;
58360;SDS011;44164;44.954;10.068;2023-04-07T05:23:36;7.78;;;3.95;;
58360;SDS011;44164;44.954;10.068;2023-04-07T05:28:30;6.75;;;3.40;;
58360;SDS011;44164;44.954;10.068;2023-04-07T05:31:01;5.82;;;3.47;;
58360;SDS011;44164;44.954;10.068;2023-04-07T05:33:30;6.03;;;3.33;;
58360;SDS011;44164;44.954;10.068;2023-04-07T05:35:56;6.57;;;2.90;;
58360;SDS011;44164;44.954;10.068;2023-04-07T05:38:23;6.40;;;3.38;;
58360;SDS011;44164;44.954;10.068;2023-04-07T05:40:51;5.45;;;3.10;;
58360;SDS011;44164;44.954;10.068;2023-04-07T05:43:25;7.63;;;4.15;;
58360;SDS011;44164;44.954;10.068;2023-04-07T05:45:51;6.10;;;3.22;;
58360;SDS011;44164;44.954;10.068;2023-04-07T05:48:17;5.78;;;3.58;;
58360;SDS011;44164;44.954;10.068;2023-04-07T05:50:46;4.55;;;3.00;;
58360;SDS011;44164;44.954;10.068;2023-04-07T05:53:15;7.82;;;3.25;;
58360;SDS011;44164;44.954;10.068;2023-04-07T05:55:42;8.27;;;3.20;;
58360;SDS011;44164;44.954;10.068;2023-04-07T05:58:11;6.07;;;3.42;;
58360;SDS011;44164;44.954;10.068;2023-04-07T06:00:40;5.00;;;3.17;;
58360;SDS011;44164;44.954;10.068;2023-04-07T06:03:12;7.70;;;3.53;;
58360;SDS011;44164;44.954;10.068;2023-04-07T06:05:53;6.85;;;3.22;;
58360;SDS011;44164;44.954;10.068;2023-04-07T06:08:21;4.90;;;3.00;;
58360;SDS011;44164;44.954;10.068;2023-04-07T06:10:47;6.20;;;2.85;;
58360;SDS011;44164;44.954;10.068;2023-04-07T06:13:13;6.28;;;2.90;;
58360;SDS011;44164;44.954;10.068;2023-04-07T06:15:39;6.10;;;3.17;;
58360;SDS011;44164;44.954;10.068;2023-04-07T06:18:05;5.60;;;2.97;;
58360;SDS011;44164;44.954;10.068;2023-04-07T06:20:32;5.07;;;3.17;;
58360;SDS011;44164;44.954;10.068;2023-04-07T06:22:58;5.35;;;3.05;;
58360;SDS011;44164;44.954;10.068;2023-04-07T06:25:25;4.93;;;2.80;;
58360;SDS011;44164;44.954;10.068;2023-04-07T06:27:52;8.30;;;3.33;;
58360;SDS011;44164;44.954;10.068;2023-04-07T06:30:18;4.18;;;2.58;;
58360;SDS011;44164;44.954;10.068;2023-04-07T06:32:45;7.43;;;3.42;;
58360;SDS011;44164;44.954;10.068;2023-04-07T06:35:11;4.43;;;3.00;;
58360;SDS011;44164;44.954;10.068;2023-04-07T06:37:37;5.47;;;2.80;;
58360;SDS011;44164;44.954;10.068;2023-04-07T06:40:05;4.95;;;2.53;;
58360;SDS011;44164;44.954;10.068;2023-04-07T06:42:32;3.63;;;2.42;;
58360;SDS011;44164;44.954;10.068;2023-04-07T06:45:08;4.68;;;2.65;;
58360;SDS011;44164;44.954;10.068;2023-04-07T06:47:34;4.82;;;2.88;;
58360;SDS011;44164;44.954;10.068;2023-04-07T06:50:00;5.88;;;3.30;;
58360;SDS011;44164;44.954;10.068;2023-04-07T06:52:27;11.27;;;3.13;;
58360;SDS011;44164;44.954;10.068;2023-04-07T06:54:53;7.90;;;3.05;;
58360;SDS011;44164;44.954;10.068;2023-04-07T06:57:19;7.43;;;2.78;;
58360;SDS011;44164;44.954;10.068;2023-04-07T06:59:45;5.18;;;3.05;;
58360;SDS011;44164;44.954;10.068;2023-04-07T07:02:11;8.80;;;3.03;;
58360;SDS011;44164;44.954;10.068;2023-04-07T07:04:37;5.53;;;2.70;;
58360;SDS011;44164;44.954;10.068;2023-04-07T07:07:04;5.55;;;2.45;;
58360;SDS011;44164;44.954;10.068;2023-04-07T07:09:30;6.35;;;3.38;;
58360;SDS011;44164;44.954;10.068;2023-04-07T07:11:56;6.75;;;3.10;;
58360;SDS011;44164;44.954;10.068;2023-04-07T07:14:22;8.05;;;2.75;;
58360;SDS011;44164;44.954;10.068;2023-04-07T07:16:48;7.68;;;2.60;;
58360;SDS011;44164;44.954;10.068;2023-04-07T07:19:14;5.82;;;2.25;;
58360;SDS011;44164;44.954;10.068;2023-04-07T07:21:40;11.35;;;3.10;;
58360;SDS011;44164;44.954;10.068;2023-04-07T07:24:07;5.85;;;2.90;;
58360;SDS011;44164;44.954;10.068;2023-04-07T07:26:33;4.88;;;2.55;;
58360;SDS011;44164;44.954;10.068;2023-04-07T07:28:59;4.20;;;2.17;;
58360;SDS011;44164;44.954;10.068;2023-04-07T07:31:25;6.70;;;2.55;;
58360;SDS011;44164;44.954;10.068;2023-04-07T07:33:51;6.63;;;2.83;;
58360;SDS011;44164;44.954;10.068;2023-04-07T07:36:17;6.28;;;2.90;;
58360;SDS011;44164;44.954;10.068;2023-04-07T07:38:43;9.30;;;2.67;;
58360;SDS011;44164;44.954;10.068;2023-04-07T07:41:09;5.03;;;2.85;;
58360;SDS011;44164;44.954;10.068;2023-04-07T07:43:35;4.38;;;2.60;;
58360;SDS011;44164;44.954;10.068;2023-04-07T07:46:02;5.15;;;2.67;;
58360;SDS011;44164;44.954;10.068;2023-04-07T07:48:28;4.78;;;2.72;;
58360;SDS011;44164;44.954;10.068;2023-04-07T07:50:54;5.65;;;2.80;;
58360;SDS011;44164;44.954;10.068;2023-04-07T07:53:21;3.53;;;2.30;;
58360;SDS011;44164;44.954;10.068;2023-04-07T07:55:48;7.65;;;3.28;;
58360;SDS011;44164;44.954;10.068;2023-04-07T07:58:14;5.03;;;2.35;;
58360;SDS011;44164;44.954;10.068;2023-04-07T08:00:40;4.90;;;2.67;;
58360;SDS011;44164;44.954;10.068;2023-04-07T08:03:06;9.10;;;2.75;;
58360;SDS011;44164;44.954;10.068;2023-04-07T08:05:32;4.53;;;2.78;;
58360;SDS011;44164;44.954;10.068;2023-04-07T08:07:58;5.78;;;2.75;;
58360;SDS011;44164;44.954;10.068;2023-04-07T08:10:25;5.70;;;2.35;;
58360;SDS011;44164;44.954;10.068;2023-04-07T08:12:51;4.30;;;2.40;;
58360;SDS011;44164;44.954;10.068;2023-04-07T08:15:17;4.60;;;2.38;;
58360;SDS011;44164;44.954;10.068;2023-04-07T08:17:43;4.53;;;2.65;;
58360;SDS011;44164;44.954;10.068;2023-04-07T08:20:09;4.15;;;2.30;;
58360;SDS011;44164;44.954;10.068;2023-04-07T08:22:36;4.70;;;2.58;;
58360;SDS011;44164;44.954;10.068;2023-04-07T08:25:02;3.25;;;2.30;;
58360;SDS011;44164;44.954;10.068;2023-04-07T08:27:28;4.57;;;2.50;;
58360;SDS011;44164;44.954;10.068;2023-04-07T08:29:58;5.00;;;2.25;;
58360;SDS011;44164;44.954;10.068;2023-04-07T08:32:39;5.95;;;2.40;;
58360;SDS011;44164;44.954;10.068;2023-04-07T08:35:06;5.85;;;2.67;;
58360;SDS011;44164;44.954;10.068;2023-04-07T08:37:33;6.60;;;2.75;;
58360;SDS011;44164;44.954;10.068;2023-04-07T08:39:59;11.82;;;3.67;;
58360;SDS011;44164;44.954;10.068;2023-04-07T08:42:27;3.75;;;2.42;;
58360;SDS011;44164;44.954;10.068;2023-04-07T08:47:21;7.97;;;2.40;;
58360;SDS011;44164;44.954;10.068;2023-04-07T08:49:49;4.27;;;2.80;;
58360;SDS011;44164;44.954;10.068;2023-04-07T08:52:16;5.03;;;2.42;;
58360;SDS011;44164;44.954;10.068;2023-04-07T08:54:43;4.00;;;2.78;;
58360;SDS011;44164;44.954;10.068;2023-04-07T08:57:09;3.63;;;2.40;;
58360;SDS011;44164;44.954;10.068;2023-04-07T08:59:36;10.30;;;2.53;;
58360;SDS011;44164;44.954;10.068;2023-04-07T09:02:02;4.60;;;2.30;;
58360;SDS011;44164;44.954;10.068;2023-04-07T09:04:29;3.63;;;2.33;;
58360;SDS011;44164;44.954;10.068;2023-04-07T09:06:56;3.97;;;2.42;;
58360;SDS011;44164;44.954;10.068;2023-04-07T09:09:22;4.28;;;2.40;;
58360;SDS011;44164;44.954;10.068;2023-04-07T09:11:49;4.30;;;2.45;;
58360;SDS011;44164;44.954;10.068;2023-04-07T09:14:17;4.65;;;2.35;;
58360;SDS011;44164;44.954;10.068;2023-04-07T09:16:45;4.30;;;2.20;;
58360;SDS011;44164;44.954;10.068;2023-04-07T09:19:11;6.10;;;2.30;;
58360;SDS011;44164;44.954;10.068;2023-04-07T09:21:50;4.20;;;2.88;;
58360;SDS011;44164;44.954;10.068;2023-04-07T09:24:21;5.60;;;2.60;;
58360;SDS011;44164;44.954;10.068;2023-04-07T09:27:25;7.68;;;3.20;;
58360;SDS011;44164;44.954;10.068;2023-04-07T09:29:45;7.22;;;3.65;;
58360;SDS011;44164;44.954;10.068;2023-04-07T09:32:12;5.03;;;2.97;;
58360;SDS011;44164;44.954;10.068;2023-04-07T09:34:59;5.13;;;2.90;;
58360;SDS011;44164;44.954;10.068;2023-04-07T09:37:25;4.18;;;2.67;;
58360;SDS011;44164;44.954;10.068;2023-04-07T09:39:52;5.97;;;2.92;;
58360;SDS011;44164;44.954;10.068;2023-04-07T09:42:19;5.93;;;3.00;;
58360;SDS011;44164;44.954;10.068;2023-04-07T09:44:45;5.07;;;2.65;;
58360;SDS011;44164;44.954;10.068;2023-04-07T09:47:11;7.55;;;3.85;;
58360;SDS011;44164;44.954;10.068;2023-04-07T09:49:47;4.70;;;2.78;;
58360;SDS011;44164;44.954;10.068;2023-04-07T09:52:15;6.35;;;3.53;;
58360;SDS011;44164;44.954;10.068;2023-04-07T09:54:43;7.55;;;2.65;;
58360;SDS011;44164;44.954;10.068;2023-04-07T09:57:10;5.88;;;3.00;;
58360;SDS011;44164;44.954;10.068;2023-04-07T09:59:38;3.92;;;2.47;;
58360;SDS011;44164;44.954;10.068;2023-04-07T10:02:06;6.78;;;2.75;;
58360;SDS011;44164;44.954;10.068;2023-04-07T10:04:32;5.95;;;3.00;;
58360;SDS011;44164;44.954;10.068;2023-04-07T10:06:59;6.93;;;3.33;;
58360;SDS011;44164;44.954;10.068;2023-04-07T10:09:26;5.93;;;2.78;;
58360;SDS011;44164;44.954;10.068;2023-04-07T10:11:53;5.50;;;3.10;;
58360;SDS011;44164;44.954;10.068;2023-04-07T10:14:21;4.05;;;2.55;;
58360;SDS011;44164;44.954;10.068;2023-04-07T10:16:54;8.30;;;2.72;;
58360;SDS011;44164;44.954;10.068;2023-04-07T10:19:20;4.47;;;2.83;;
58360;SDS011;44164;44.954;10.068;2023-04-07T10:21:49;5.30;;;2.83;;
58360;SDS011;44164;44.954;10.068;2023-04-07T10:24:32;6.18;;;2.75;;
58360;SDS011;44164;44.954;10.068;2023-04-07T10:27:08;6.20;;;2.83;;
58360;SDS011;44164;44.954;10.068;2023-04-07T10:29:38;4.65;;;2.80;;
58360;SDS011;44164;44.954;10.068;2023-04-07T10:32:06;8.23;;;2.95;;
58360;SDS011;44164;44.954;10.068;2023-04-07T10:37:15;5.47;;;2.65;;
58360;SDS011;44164;44.954;10.068;2023-04-07T10:39:47;5.68;;;2.88;;
58360;SDS011;44164;44.954;10.068;2023-04-07T10:42:43;4.50;;;2.42;;
58360;SDS011;44164;44.954;10.068;2023-04-07T10:45:10;4.97;;;2.97;;
58360;SDS011;44164;44.954;10.068;2023-04-07T10:50:22;3.63;;;2.45;;
58360;SDS011;44164;44.954;10.068;2023-04-07T10:53:03;4.25;;;2.10;;
58360;SDS011;44164;44.954;10.068;2023-04-07T10:55:43;3.85;;;2.40;;
58360;SDS011;44164;44.954;10.068;2023-04-07T11:00:42;4.07;;;2.10;;
58360;SDS011;44164;44.954;10.068;2023-04-07T11:03:29;6.15;;;2.97;;
58360;SDS011;44164;44.954;10.068;2023-04-07T11:06:03;3.97;;;2.03;;
58360;SDS011;44164;44.954;10.068;2023-04-07T11:11:02;5.45;;;2.60;;
58360;SDS011;44164;44.954;10.068;2023-04-07T11:16:17;3.70;;;2.25;;
58360;SDS011;44164;44.954;10.068;2023-04-07T11:18:44;3.92;;;2.28;;
58360;SDS011;44164;44.954;10.068;2023-04-07T11:23:42;5.15;;;2.70;;
58360;SDS011;44164;44.954;10.068;2023-04-07T11:26:11;5.78;;;2.70;;
58360;SDS011;44164;44.954;10.068;2023-04-07T11:28:48;5.53;;;2.42;;
58360;SDS011;44164;44.954;10.068;2023-04-07T11:31:23;5.43;;;2.42;;
58360;SDS011;44164;44.954;10.068;2023-04-07T11:33:51;4.43;;;2.60;;
58360;SDS011;44164;44.954;10.068;2023-04-07T11:39:00;3.88;;;2.35;;
58360;SDS011;44164;44.954;10.068;2023-04-07T11:41:27;5.35;;;2.95;;
58360;SDS011;44164;44.954;10.068;2023-04-07T11:46:30;9.75;;;3.53;;
58360;SDS011;44164;44.954;10.068;2023-04-07T11:49:07;8.05;;;2.70;;
58360;SDS011;44164;44.954;10.068;2023-04-07T11:51:42;7.00;;;2.58;;
58360;SDS011;44164;44.954;10.068;2023-04-07T11:54:09;4.18;;;2.40;;
58360;SDS011;44164;44.954;10.068;2023-04-07T11:56:42;6.40;;;2.58;;
58360;SDS011;44164;44.954;10.068;2023-04-07T11:59:21;7.75;;;2.47;;
58360;SDS011;44164;44.954;10.068;2023-04-07T12:01:48;5.97;;;2.35;;
58360;SDS011;44164;44.954;10.068;2023-04-07T12:04:15;3.73;;;2.47;;
58360;SDS011;44164;44.954;10.068;2023-04-07T12:06:42;3.72;;;2.83;;
58360;SDS011;44164;44.954;10.068;2023-04-07T12:11:52;3.78;;;2.30;;
58360;SDS011;44164;44.954;10.068;2023-04-07T12:14:18;4.78;;;2.45;;
58360;SDS011;44164;44.954;10.068;2023-04-07T12:16:44;3.60;;;2.00;;
58360;SDS011;44164;44.954;10.068;2023-04-07T12:19:10;5.57;;;2.30;;
58360;SDS011;44164;44.954;10.068;2023-04-07T12:21:36;3.50;;;1.77;;
58360;SDS011;44164;44.954;10.068;2023-04-07T12:24:03;4.45;;;2.33;;
58360;SDS011;44164;44.954;10.068;2023-04-07T12:26:29;4.60;;;2.30;;
58360;SDS011;44164;44.954;10.068;2023-04-07T12:28:55;5.30;;;2.60;;
58360;SDS011;44164;44.954;10.068;2023-04-07T12:33:49;5.50;;;2.47;;
58360;SDS011;44164;44.954;10.068;2023-04-07T12:36:16;6.85;;;2.03;;
58360;SDS011;44164;44.954;10.068;2023-04-07T12:38:42;5.35;;;2.65;;
58360;SDS011;44164;44.954;10.068;2023-04-07T12:41:08;5.95;;;2.60;;
58360;SDS011;44164;44.954;10.068;2023-04-07T12:43:34;3.58;;;2.05;;
58360;SDS011;44164;44.954;10.068;2023-04-07T12:46:00;5.68;;;2.40;;
58360;SDS011;44164;44.954;10.068;2023-04-07T12:48:26;4.75;;;2.38;;
58360;SDS011;44164;44.954;10.068;2023-04-07T12:50:52;4.50;;;2.30;;
58360;SDS011;44164;44.954;10.068;2023-04-07T12:53:18;4.95;;;2.40;;
58360;SDS011;44164;44.954;10.068;2023-04-07T12:55:45;3.88;;;2.45;;
58360;SDS011;44164;44.954;10.068;2023-04-07T12:58:13;3.78;;;2.20;;
58360;SDS011;44164;44.954;10.068;2023-04-07T13:00:39;3.97;;;2.00;;
58360;SDS011;44164;44.954;10.068;2023-04-07T13:03:06;3.60;;;2.17;;
58360;SDS011;44164;44.954;10.068;2023-04-07T13:05:32;4.25;;;2.50;;
58360;SDS011;44164;44.954;10.068;2023-04-07T13:07:59;3.92;;;2.47;;
58360;SDS011;44164;44.954;10.068;2023-04-07T13:10:25;4.22;;;2.30;;
58360;SDS011;44164;44.954;10.068;2023-04-07T13:12:51;3.63;;;2.35;;
58360;SDS011;44164;44.954;10.068;2023-04-07T13:15:18;3.33;;;2.30;;
58360;SDS011;44164;44.954;10.068;2023-04-07T13:17:44;4.00;;;2.25;;
58360;SDS011;44164;44.954;10.068;2023-04-07T13:20:11;4.10;;;2.00;;
58360;SDS011;44164;44.954;10.068;2023-04-07T13:22:37;4.20;;;2.70;;
58360;SDS011;44164;44.954;10.068;2023-04-07T13:25:03;4.80;;;2.25;;
58360;SDS011;44164;44.954;10.068;2023-04-07T13:27:30;4.47;;;2.38;;
58360;SDS011;44164;44.954;10.068;2023-04-07T13:29:56;3.42;;;2.53;;
58360;SDS011;44164;44.954;10.068;2023-04-07T13:32:22;3.17;;;1.92;;
58360;SDS011;44164;44.954;10.068;2023-04-07T13:34:48;4.28;;;2.58;;
58360;SDS011;44164;44.954;10.068;2023-04-07T13:37:14;3.30;;;2.25;;
58360;SDS011;44164;44.954;10.068;2023-04-07T13:39:41;5.03;;;1.90;;
58360;SDS011;44164;44.954;10.068;2023-04-07T13:42:07;4.22;;;2.17;;
58360;SDS011;44164;44.954;10.068;2023-04-07T13:44:34;7.78;;;4.60;;
58360;SDS011;44164;44.954;10.068;2023-04-07T13:47:02;8.98;;;6.63;;
58360;SDS011;44164;44.954;10.068;2023-04-07T13:49:28;12.43;;;4.03;;
58360;SDS011;44164;44.954;10.068;2023-04-07T13:51:54;8.00;;;5.18;;
58360;SDS011;44164;44.954;10.068;2023-04-07T13:54:20;6.35;;;4.60;;
58360;SDS011;44164;44.954;10.068;2023-04-07T13:56:47;9.20;;;4.75;;
58360;SDS011;44164;44.954;10.068;2023-04-07T13:59:13;7.07;;;5.20;;
58360;SDS011;44164;44.954;10.068;2023-04-07T14:01:40;7.07;;;5.05;;
58360;SDS011;44164;44.954;10.068;2023-04-07T14:04:06;6.97;;;4.68;;
58360;SDS011;44164;44.954;10.068;2023-04-07T14:06:32;9.88;;;4.88;;
58360;SDS011;44164;44.954;10.068;2023-04-07T14:08:58;7.22;;;4.38;;
58360;SDS011;44164;44.954;10.068;2023-04-07T14:11:24;7.00;;;4.55;;
58360;SDS011;44164;44.954;10.068;2023-04-07T14:13:51;6.88;;;4.72;;
58360;SDS011;44164;44.954;10.068;2023-04-07T14:16:17;9.18;;;4.47;;
58360;SDS011;44164;44.954;10.068;2023-04-07T14:18:43;8.27;;;4.35;;
58360;SDS011;44164;44.954;10.068;2023-04-07T14:21:09;5.78;;;4.15;;
58360;SDS011;44164;44.954;10.068;2023-04-07T14:23:36;10.73;;;4.30;;
58360;SDS011;44164;44.954;10.068;2023-04-07T14:26:02;6.82;;;4.32;;
58360;SDS011;44164;44.954;10.068;2023-04-07T14:28:28;9.95;;;4.30;;
58360;SDS011;44164;44.954;10.068;2023-04-07T14:30:54;8.48;;;4.00;;
58360;SDS011;44164;44.954;10.068;2023-04-07T14:33:20;9.55;;;4.05;;
58360;SDS011;44164;44.954;10.068;2023-04-07T14:35:47;7.57;;;4.00;;
58360;SDS011;44164;44.954;10.068;2023-04-07T14:38:13;5.13;;;3.72;;
58360;SDS011;44164;44.954;10.068;2023-04-07T14:40:40;6.50;;;3.50;;
58360;SDS011;44164;44.954;10.068;2023-04-07T14:43:06;7.45;;;4.07;;
58360;SDS011;44164;44.954;10.068;2023-04-07T14:45:33;7.35;;;4.50;;
58360;SDS011;44164;44.954;10.068;2023-04-07T14:48:00;5.18;;;3.50;;
58360;SDS011;44164;44.954;10.068;2023-04-07T14:50:27;4.57;;;3.47;;
58360;SDS011;44164;44.954;10.068;2023-04-07T14:52:53;7.90;;;3.22;;
58360;SDS011;44164;44.954;10.068;2023-04-07T14:55:19;8.90;;;3.80;;
58360;SDS011;44164;44.954;10.068;2023-04-07T14:57:45;5.43;;;3.13;;
58360;SDS011;44164;44.954;10.068;2023-04-07T15:00:11;4.47;;;3.30;;
58360;SDS011;44164;44.954;10.068;2023-04-07T15:02:38;3.30;;;2.60;;
58360;SDS011;44164;44.954;10.068;2023-04-07T15:05:04;4.68;;;3.00;;
58360;SDS011;44164;44.954;10.068;2023-04-07T15:07:30;5.07;;;3.33;;
58360;SDS011;44164;44.954;10.068;2023-04-07T15:09:56;6.28;;;3.42;;
58360;SDS011;44164;44.954;10.068;2023-04-07T15:12:24;12.45;;;5.63;;
58360;SDS011;44164;44.954;10.068;2023-04-07T15:14:52;5.60;;;2.97;;
58360;SDS011;44164;44.954;10.068;2023-04-07T15:17:18;5.35;;;3.30;;
58360;SDS011;44164;44.954;10.068;2023-04-07T15:19:46;4.37;;;3.43;;
58360;SDS011;44164;44.954;10.068;2023-04-07T15:22:12;6.05;;;3.05;;